createdAt,value
2023-05-12T00:00:00.365Z,101729.22
2023-05-12T00:02:01.842Z,101729.31
2023-05-12T00:04:03.724Z,101731.16
2023-05-12T00:06:05.567Z,101730.38
2023-05-12T00:08:07.420Z,101735.72
2023-05-12T00:10:09.278Z,101739.31
2023-05-12T00:12:11.649Z,101738.44
2023-05-12T00:14:13.132Z,101743.78
2023-05-12T00:16:15.823Z,101741.19
2023-05-12T00:18:17.894Z,101736.78
2023-05-12T00:20:19.800Z,101740.34
2023-05-12T00:22:21.511Z,101741.28
2023-05-12T00:24:23.052Z,101744.84
2023-05-12T00:26:24.710Z,101750.22
2023-05-12T00:28:26.203Z,101747.66
2023-05-12T00:30:27.657Z,101751.25
2023-05-12T00:32:29.481Z,101757.53
2023-05-12T00:34:31.119Z,101750.53
2023-05-12T00:36:32.613Z,101753.28
2023-05-12T00:38:34.608Z,101756.88
2023-05-12T00:40:36.438Z,101757.91
2023-05-12T00:42:38.251Z,101764.16
2023-05-12T00:44:39.807Z,101765.13
2023-05-12T00:46:41.555Z,101756.41
2023-05-12T00:48:44.246Z,101759.97
2023-05-12T00:50:45.987Z,101768.00
2023-05-12T00:52:48.894Z,101772.47
2023-05-12T00:54:50.641Z,101772.50
2023-05-12T00:56:52.405Z,101766.31
2023-05-12T00:58:53.854Z,101770.75
2023-05-12T01:00:56.278Z,101762.81
2023-05-12T01:02:58.641Z,101771.66
2023-05-12T01:05:00.506Z,101760.19
2023-05-12T01:07:08.493Z,101769.91
2023-05-12T01:09:10.279Z,101761.16
2023-05-12T01:11:12.017Z,101768.25
2023-05-12T01:13:13.528Z,101767.38
2023-05-12T01:15:15.264Z,101770.03
2023-05-12T01:17:20.609Z,101768.38
2023-05-12T01:19:34.400Z,101771.09
2023-05-12T01:21:36.147Z,101772.94
2023-05-12T01:23:42.485Z,101770.31
2023-05-12T01:25:46.480Z,101763.31
2023-05-12T01:27:49.382Z,101774.78
2023-05-12T01:29:52.312Z,101772.22
2023-05-12T01:31:54.907Z,101776.66
2023-05-12T01:33:56.477Z,101775.81
2023-05-12T01:35:57.945Z,101779.47
2023-05-12T01:37:59.392Z,101784.81
2023-05-12T01:40:00.983Z,101778.69
2023-05-12T01:42:03.784Z,101781.47
2023-05-12T01:44:05.428Z,101788.63
2023-05-12T01:46:06.893Z,101798.38
2023-05-12T01:48:08.414Z,101797.53
2023-05-12T01:50:10.510Z,101793.16
2023-05-12T01:52:11.972Z,101791.41
2023-05-12T01:54:13.770Z,101788.81
2023-05-12T01:56:15.385Z,101791.50
2023-05-12T01:58:16.882Z,101795.97
2023-05-12T02:00:18.742Z,101797.81
2023-05-12T02:02:20.531Z,101804.91
2023-05-12T02:04:22.040Z,101803.16
2023-05-12T02:06:23.790Z,101799.66
2023-05-12T02:08:25.946Z,101803.19
2023-05-12T02:10:27.783Z,101805.00
2023-05-12T02:12:29.299Z,101804.09
2023-05-12T02:14:30.857Z,101799.69
2023-05-12T02:16:32.350Z,101803.19
2023-05-12T02:18:33.880Z,101797.03
2023-05-12T02:20:36.209Z,101806.75
2023-05-12T02:22:37.691Z,101806.72
2023-05-12T02:24:39.156Z,101805.84
2023-05-12T02:26:40.637Z,101804.94
2023-05-12T02:28:42.122Z,101804.03
2023-05-12T02:30:50.252Z,101797.84
2023-05-12T02:32:51.733Z,101812.84
2023-05-12T02:34:53.342Z,101807.56
2023-05-12T02:36:54.837Z,101808.44
2023-05-12T02:38:56.308Z,101810.22
2023-05-12T02:40:58.048Z,101805.78
2023-05-12T02:42:59.501Z,101806.66
2023-05-12T02:45:01.077Z,101802.28
2023-05-12T02:47:02.620Z,101805.78
2023-05-12T02:49:04.456Z,101805.78
2023-05-12T02:51:05.972Z,101804.03
2023-05-12T02:53:07.495Z,101807.56
2023-05-12T02:55:09.185Z,101800.50
2023-05-12T02:57:11.680Z,101799.59
2023-05-12T02:59:13.197Z,101807.53
2023-05-12T03:01:14.804Z,101807.56
2023-05-12T03:03:16.384Z,101806.63
2023-05-12T03:05:18.036Z,101805.75
2023-05-12T03:07:19.545Z,101812.84
2023-05-12T03:09:21.030Z,101810.22
2023-05-12T03:11:22.808Z,101823.44
2023-05-12T03:13:24.314Z,101824.31
2023-05-12T03:15:25.790Z,101816.38
2023-05-12T03:17:27.334Z,101820.78
2023-05-12T03:19:28.907Z,101819.00
2023-05-12T03:21:30.427Z,101818.94
2023-05-12T03:23:31.956Z,101824.28
2023-05-12T03:25:35.060Z,101820.75
2023-05-12T03:27:36.820Z,101817.13
2023-05-12T03:29:38.282Z,101809.25
2023-05-12T03:31:40.060Z,101817.13
2023-05-12T03:33:41.614Z,101817.13
2023-05-12T03:35:43.091Z,101818.00
2023-05-12T03:37:44.666Z,101813.66
2023-05-12T03:39:46.168Z,101810.09
2023-05-12T03:41:47.625Z,101810.03
2023-05-12T03:43:49.341Z,101816.19
2023-05-12T03:45:50.820Z,101814.44
2023-05-12T03:47:52.505Z,101817.06
2023-05-12T03:49:53.956Z,101817.00
2023-05-12T03:51:55.448Z,101814.31
2023-05-12T03:53:56.910Z,101813.44
2023-05-12T03:56:03.483Z,101819.66
2023-05-12T03:58:04.973Z,101820.53
2023-05-12T04:00:07.251Z,101826.69
2023-05-12T04:02:11.770Z,101832.84
2023-05-12T04:04:13.329Z,101825.81
2023-05-12T04:06:14.871Z,101833.72
2023-05-12T04:08:16.319Z,101829.31
2023-05-12T04:10:18.133Z,101840.72
2023-05-12T04:12:19.819Z,101838.97
2023-05-12T04:14:29.040Z,101838.97
2023-05-12T04:16:37.177Z,101842.44
2023-05-12T04:18:38.973Z,101839.78
2023-05-12T04:20:40.680Z,101844.13
2023-05-12T04:22:42.300Z,101841.47
2023-05-12T04:24:43.754Z,101846.72
2023-05-12T04:26:45.338Z,101854.59
2023-05-12T04:28:47.794Z,101853.75
2023-05-12T04:30:49.376Z,101858.09
2023-05-12T04:32:50.900Z,101858.97
2023-05-12T04:34:55.248Z,101860.72
2023-05-12T04:36:57.015Z,101861.56
2023-05-12T04:38:58.459Z,101854.44
2023-05-12T04:41:00.688Z,101857.06
2023-05-12T04:43:02.182Z,101864.06
2023-05-12T04:45:03.937Z,101861.38
2023-05-12T04:47:05.651Z,101867.50
2023-05-12T04:49:07.161Z,101864.81
2023-05-12T04:51:08.811Z,101871.00
2023-05-12T04:53:11.469Z,101870.06
2023-05-12T04:55:13.048Z,101874.44
2023-05-12T04:57:14.617Z,101880.56
2023-05-12T04:59:16.434Z,101880.50
2023-05-12T05:01:18.247Z,101884.88
2023-05-12T05:03:19.999Z,101885.69
2023-05-12T05:05:21.914Z,101890.94
2023-05-12T05:07:23.624Z,101886.50
2023-05-12T05:09:25.085Z,101890.84
2023-05-12T05:11:26.926Z,101895.25
2023-05-12T05:13:28.382Z,101892.56
2023-05-12T05:15:29.848Z,101903.13
2023-05-12T05:17:31.329Z,101910.16
2023-05-12T05:19:46.127Z,101911.84
2023-05-12T05:21:53.938Z,101906.47
2023-05-12T05:23:55.387Z,101905.50
2023-05-12T05:25:56.855Z,101917.84
2023-05-12T05:27:58.452Z,101919.59
2023-05-12T05:29:59.987Z,101921.34
2023-05-12T05:32:01.547Z,101912.47
2023-05-12T05:34:03.172Z,101908.88
2023-05-12T05:36:06.359Z,101914.97
2023-05-12T05:38:07.825Z,101919.31
2023-05-12T05:40:09.854Z,101922.78
2023-05-12T05:42:11.399Z,101927.06
2023-05-12T05:44:12.855Z,101922.63
2023-05-12T05:46:14.348Z,101928.72
2023-05-12T05:48:15.896Z,101926.88
2023-05-12T05:50:17.455Z,101919.91
2023-05-12T05:52:19.014Z,101928.66
2023-05-12T05:54:22.954Z,101927.72
2023-05-12T05:56:24.406Z,101937.41
2023-05-12T05:58:25.870Z,101936.44
2023-05-12T06:00:27.355Z,101934.66
2023-05-12T06:02:28.886Z,101934.56
2023-05-12T06:04:30.583Z,101946.81
2023-05-12T06:06:32.656Z,101943.19
2023-05-12T06:08:34.152Z,101947.56
2023-05-12T06:10:35.599Z,101944.00
2023-05-12T06:12:37.131Z,101950.09
2023-05-12T06:14:38.583Z,101957.09
2023-05-12T06:16:40.087Z,101954.41
2023-05-12T06:18:41.611Z,101958.75
2023-05-12T06:20:43.323Z,101959.53
2023-05-12T06:22:44.784Z,101955.97
2023-05-12T06:24:46.258Z,101967.34
2023-05-12T06:26:47.768Z,101975.13
2023-05-12T06:28:49.208Z,101967.91
2023-05-12T06:30:50.694Z,101971.31
2023-05-12T06:32:52.235Z,101972.09
2023-05-12T06:34:53.802Z,101971.13
2023-05-12T06:36:55.317Z,101973.63
2023-05-12T06:38:57.279Z,101970.72
2023-05-12T06:40:58.750Z,101975.00
2023-05-12T06:43:00.338Z,101964.19
2023-05-12T06:45:01.843Z,101973.66
2023-05-12T06:47:03.504Z,101972.66
2023-05-12T06:49:05.351Z,101978.63
2023-05-12T06:51:07.408Z,101979.25
2023-05-12T06:53:09.228Z,101978.09
2023-05-12T06:55:10.804Z,101986.69
2023-05-12T06:57:12.266Z,101991.78
2023-05-12T06:59:14.206Z,102000.56
2023-05-12T07:01:16.405Z,101989.88
2023-05-12T07:03:17.936Z,101992.34
2023-05-12T07:05:19.934Z,101981.72
2023-05-12T07:07:21.698Z,101985.13
2023-05-12T07:09:23.153Z,101983.19
2023-05-12T07:11:24.629Z,101992.75
2023-05-12T07:13:26.240Z,101988.00
2023-05-12T07:15:27.713Z,101982.50
2023-05-12T07:17:29.244Z,101977.06
2023-05-12T07:19:30.797Z,101981.28
2023-05-12T07:21:32.413Z,101991.81
2023-05-12T07:23:34.866Z,101994.41
2023-05-12T07:25:36.458Z,102002.13
2023-05-12T07:27:37.960Z,101999.31
2023-05-12T07:29:39.437Z,101997.22
2023-05-12T07:31:41.070Z,101995.28
2023-05-12T07:33:42.720Z,101997.72
2023-05-12T07:35:44.663Z,101991.31
2023-05-12T07:37:46.136Z,101989.38
2023-05-12T07:39:47.609Z,101988.22
2023-05-12T07:41:50.453Z,101995.00
2023-05-12T07:43:52.138Z,101999.34
2023-05-12T07:45:54.666Z,101997.38
2023-05-12T07:47:56.173Z,101997.31
2023-05-12T07:49:58.068Z,101991.00
2023-05-12T07:51:59.596Z,101995.22
2023-05-12T07:54:01.552Z,101995.88
2023-05-12T07:56:03.070Z,102001.84
2023-05-12T07:58:04.618Z,101996.34
2023-05-12T08:00:06.756Z,102003.22
2023-05-12T08:02:08.536Z,101995.22
2023-05-12T08:04:10.301Z,102006.56
2023-05-12T08:06:11.796Z,102003.72
2023-05-12T08:08:16.679Z,102000.91
2023-05-12T08:10:19.491Z,102005.19
2023-05-12T08:12:21.327Z,102011.88
2023-05-12T08:14:22.922Z,102014.03
2023-05-12T08:16:24.450Z,102003.94
2023-05-12T08:18:25.985Z,102002.59
2023-05-12T08:20:27.502Z,102008.25
2023-05-12T08:22:29.092Z,102012.13
2023-05-12T08:24:30.668Z,102011.16
2023-05-12T08:26:34.849Z,102012.88
2023-05-12T08:28:36.343Z,102004.75
2023-05-12T08:30:37.882Z,102014.34
2023-05-12T08:32:39.609Z,102014.19
2023-05-12T08:34:41.153Z,102010.75
2023-05-12T08:36:42.974Z,102009.78
2023-05-12T08:38:44.460Z,102014.31
2023-05-12T08:41:23.113Z,102015.72
2023-05-12T08:43:26.671Z,102014.72
2023-05-12T08:45:29.552Z,102016.22
2023-05-12T08:47:33.656Z,102016.22
2023-05-12T08:49:36.366Z,102014.09
2023-05-12T08:51:40.470Z,102013.84
2023-05-12T08:53:42.503Z,102010.06
2023-05-12T08:55:54.380Z,102014.28
2023-05-12T08:58:03.773Z,102014.78
2023-05-12T09:00:08.856Z,102014.34
2023-05-12T09:02:11.283Z,102019.69
2023-05-12T09:04:15.384Z,102012.47
2023-05-12T09:06:17.597Z,102013.16
2023-05-12T09:08:19.272Z,102017.34
2023-05-12T09:10:34.258Z,102024.59
2023-05-12T09:12:37.922Z,102013.63
2023-05-12T09:14:40.717Z,102015.28
2023-05-12T09:16:45.908Z,102018.63
2023-05-12T09:18:51.745Z,102018.50
2023-05-12T09:20:53.276Z,102027.00
2023-05-12T09:22:56.732Z,102022.38
2023-05-12T09:24:58.227Z,102015.75
2023-05-12T09:26:59.757Z,102019.09
2023-05-12T09:29:08.345Z,102025.09
2023-05-12T09:31:20.854Z,102021.97
2023-05-12T09:33:22.961Z,102026.06
2023-05-12T09:35:25.612Z,102027.66
2023-05-12T09:37:32.380Z,102020.78
2023-05-12T09:39:34.095Z,102019.28
2023-05-12T09:41:43.186Z,102018.84
2023-05-12T09:43:46.100Z,102023.09
2023-05-12T09:45:50.141Z,102027.97
2023-05-12T09:47:51.731Z,102021.28
2023-05-12T09:49:53.394Z,102020.25
2023-05-12T09:52:01.522Z,102023.75
2023-05-12T09:54:03.564Z,102018.16
2023-05-12T09:56:06.259Z,102021.72
2023-05-12T09:58:09.937Z,102015.78
2023-05-12T10:00:31.385Z,102016.34
2023-05-12T10:02:40.614Z,102018.38
2023-05-12T10:04:47.660Z,102024.88
2023-05-12T10:06:49.607Z,102025.13
2023-05-12T10:08:56.448Z,102029.06
2023-05-12T10:11:00.231Z,102027.16
2023-05-12T10:13:01.806Z,102027.88
2023-05-12T10:15:04.293Z,102023.31
2023-05-12T10:17:07.190Z,102023.00
2023-05-12T10:19:10.449Z,102020.47
2023-05-12T10:21:12.961Z,102035.47
2023-05-12T10:23:16.793Z,102030.00
2023-05-12T10:25:18.614Z,102029.41
2023-05-12T10:27:22.442Z,102029.13
2023-05-12T10:29:32.751Z,102024.22
2023-05-12T10:31:36.216Z,102020.50
2023-05-12T10:33:37.765Z,102021.56
2023-05-12T10:35:40.095Z,102023.50
2023-05-12T10:37:42.948Z,102021.59
2023-05-12T10:39:49.075Z,102024.41
2023-05-12T10:42:01.559Z,102016.03
2023-05-12T10:44:03.080Z,102016.34
2023-05-12T10:46:10.417Z,102010.66
2023-05-12T10:48:15.674Z,102019.66
2023-05-12T10:50:27.389Z,102015.13
2023-05-12T10:52:28.860Z,102014.16
2023-05-12T10:54:39.474Z,102014.66
2023-05-12T10:56:45.094Z,102020.00
2023-05-12T10:59:32.302Z,102022.72
2023-05-12T11:01:34.763Z,102023.13
2023-05-12T11:03:38.246Z,102022.16
2023-05-12T11:05:40.354Z,102018.47
2023-05-12T11:07:47.923Z,102025.97
2023-05-12T11:09:58.514Z,102015.03
2023-05-12T11:12:02.119Z,102023.53
2023-05-12T11:14:04.397Z,102018.38
2023-05-12T11:16:06.131Z,102029.53
2023-05-12T11:18:08.412Z,102022.22
2023-05-12T11:20:10.798Z,102027.63
2023-05-12T11:22:12.984Z,102032.66
2023-05-12T11:24:16.610Z,102027.47
2023-05-12T11:26:18.760Z,102027.56
2023-05-12T11:28:20.291Z,102030.13
2023-05-12T11:30:22.303Z,102026.53
2023-05-12T11:32:23.828Z,102020.25
2023-05-12T11:34:27.152Z,102019.00
2023-05-12T11:36:28.790Z,102028.31
2023-05-12T11:38:30.346Z,102022.44
2023-05-12T11:40:31.799Z,102029.91
2023-05-12T11:42:33.475Z,102022.47
2023-05-12T11:44:35.821Z,102019.63
2023-05-12T11:46:37.317Z,102017.63
2023-05-12T11:48:38.763Z,102024.38
2023-05-12T11:50:48.659Z,102020.97
2023-05-12T11:52:51.596Z,102021.09
2023-05-12T11:54:58.026Z,102020.63
2023-05-12T11:57:01.240Z,102016.78
2023-05-12T11:59:02.868Z,102017.13
2023-05-12T12:01:13.818Z,102024.13
2023-05-12T12:03:16.736Z,102024.59
2023-05-12T12:05:21.040Z,102017.59
2023-05-12T12:07:30.229Z,102019.47
2023-05-12T12:09:40.688Z,102024.31
2023-05-12T12:11:42.168Z,102020.44
2023-05-12T12:13:56.426Z,102019.56
2023-05-12T12:15:58.008Z,102025.69
2023-05-12T12:17:59.900Z,102023.91
2023-05-12T12:20:01.617Z,102020.94
2023-05-12T12:22:03.140Z,102027.34
2023-05-12T12:24:06.146Z,102037.50
2023-05-12T12:26:07.986Z,102027.78
2023-05-12T12:28:09.496Z,102044.06
2023-05-12T12:30:11.701Z,102033.69
2023-05-12T12:32:13.271Z,102032.69
2023-05-12T12:34:14.749Z,102025.78
2023-05-12T12:36:16.211Z,102034.66
2023-05-12T12:38:17.740Z,102035.09
2023-05-12T12:40:20.151Z,102023.34
2023-05-12T12:42:22.277Z,102029.63
2023-05-12T12:44:23.754Z,102021.50
2023-05-12T12:46:25.694Z,102027.66
2023-05-12T12:48:28.533Z,102021.41
2023-05-12T12:50:30.386Z,102017.63
2023-05-12T12:52:32.752Z,102030.34
2023-05-12T12:54:34.545Z,102025.56
2023-05-12T12:56:36.079Z,102027.25
2023-05-12T12:58:37.536Z,102026.78
2023-05-12T13:00:39.102Z,102021.81
2023-05-12T13:02:40.691Z,102021.19
2023-05-12T13:04:42.295Z,102014.94
2023-05-12T13:06:43.772Z,102026.19
2023-05-12T13:08:45.307Z,102028.34
2023-05-12T13:10:46.881Z,102025.09
2023-05-12T13:12:48.401Z,102030.25
2023-05-12T13:14:49.872Z,102019.22
2023-05-12T13:16:52.843Z,102016.72
2023-05-12T13:18:54.477Z,102012.09
2023-05-12T13:20:56.000Z,102011.66
2023-05-12T13:22:57.505Z,102011.25
2023-05-12T13:24:59.000Z,102010.59
2023-05-12T13:27:00.599Z,102008.88
2023-05-12T13:29:02.127Z,102008.22
2023-05-12T13:31:03.728Z,102019.69
2023-05-12T13:33:06.240Z,102019.13
2023-05-12T13:35:08.855Z,102016.72
2023-05-12T13:37:10.390Z,102018.66
2023-05-12T13:39:12.683Z,102015.81
2023-05-12T13:41:14.215Z,102017.09
2023-05-12T13:43:15.766Z,102019.31
2023-05-12T13:45:18.368Z,102004.78
2023-05-12T13:47:21.098Z,102001.97
2023-05-12T13:49:22.550Z,102011.59
2023-05-12T13:51:24.097Z,102002.72
2023-05-12T13:53:25.837Z,102004.97
2023-05-12T13:55:27.600Z,102005.47
2023-05-12T13:57:29.180Z,102004.72
2023-05-12T13:59:31.417Z,101997.38
2023-05-12T14:01:32.963Z,101999.31
2023-05-12T14:03:34.877Z,102004.88
2023-05-12T14:05:36.421Z,101999.78
2023-05-12T14:07:38.025Z,101999.44
2023-05-12T14:09:39.502Z,102000.69
2023-05-12T14:11:41.088Z,101994.53
2023-05-12T14:13:42.841Z,101995.59
2023-05-12T14:15:49.305Z,101992.16
2023-05-12T14:17:51.513Z,101994.19
2023-05-12T14:19:53.048Z,101989.72
2023-05-12T14:21:54.588Z,101981.81
2023-05-12T14:23:56.071Z,101984.53
2023-05-12T14:25:57.948Z,101987.22
2023-05-12T14:27:59.475Z,101984.63
2023-05-12T14:30:00.983Z,101976.44
2023-05-12T14:32:04.318Z,101975.88
2023-05-12T14:34:05.907Z,101982.28
2023-05-12T14:36:08.831Z,101986.97
2023-05-12T14:38:10.655Z,101977.06
2023-05-12T14:40:12.803Z,101979.69
2023-05-12T14:42:14.269Z,101984.81
2023-05-12T14:44:16.012Z,101984.72
2023-05-12T14:46:17.584Z,101975.84
2023-05-12T14:48:19.269Z,101981.84
2023-05-12T14:50:20.849Z,101988.66
2023-05-12T14:52:22.433Z,101985.22
2023-05-12T14:54:25.892Z,101990.13
2023-05-12T14:56:27.794Z,101981.53
2023-05-12T14:58:29.322Z,101981.25
2023-05-12T15:00:30.963Z,101988.06
2023-05-12T15:02:34.130Z,101987.63
2023-05-12T15:04:35.725Z,101987.91
2023-05-12T15:06:38.093Z,101986.94
2023-05-12T15:08:39.591Z,101992.16
2023-05-12T15:10:41.053Z,101993.97
2023-05-12T15:12:42.564Z,101994.19
2023-05-12T15:14:44.106Z,101992.81
2023-05-12T15:16:46.152Z,101994.22
2023-05-12T15:18:47.755Z,101990.28
2023-05-12T15:20:49.240Z,101991.66
2023-05-12T15:22:50.832Z,101991.94
2023-05-12T15:24:52.355Z,102000.31
2023-05-12T15:26:53.865Z,101994.44
2023-05-12T15:28:56.069Z,101998.19
2023-05-12T15:30:57.806Z,101999.34
2023-05-12T15:32:59.686Z,101995.09
2023-05-12T15:35:01.357Z,101990.84
2023-05-12T15:37:02.940Z,101994.88
2023-05-12T15:39:05.153Z,101993.50
2023-05-12T15:41:06.646Z,101994.47
2023-05-12T15:43:08.476Z,101995.41
2023-05-12T15:45:10.493Z,101991.41
2023-05-12T15:47:12.242Z,101990.75
2023-05-12T15:49:14.305Z,101983.75
2023-05-12T15:51:15.829Z,101990.50
2023-05-12T15:53:17.330Z,101985.97
2023-05-12T15:55:19.254Z,101993.00
2023-05-12T15:57:21.019Z,101995.69
2023-05-12T15:59:22.751Z,102002.25
2023-05-12T16:01:25.067Z,101998.78
2023-05-12T16:03:27.244Z,101997.44
2023-05-12T16:05:29.400Z,102003.16
2023-05-12T16:07:31.203Z,101999.31
2023-05-12T16:09:32.697Z,101998.09
2023-05-12T16:11:34.431Z,102004.91
2023-05-12T16:13:35.965Z,102001.91
2023-05-12T16:15:37.575Z,101997.94
2023-05-12T16:17:39.113Z,101998.47
2023-05-12T16:19:40.630Z,102005.97
2023-05-12T16:21:42.970Z,101992.88
2023-05-12T16:23:44.444Z,101999.38
2023-05-12T16:25:45.905Z,101993.31
2023-05-12T16:27:47.384Z,102000.44
2023-05-12T16:29:50.404Z,101997.75
2023-05-12T16:31:52.102Z,102001.22
2023-05-12T16:33:53.802Z,101991.31
2023-05-12T16:35:55.388Z,101992.19
2023-05-12T16:37:57.171Z,101995.84
2023-05-12T16:39:58.900Z,101991.22
2023-05-12T16:42:00.476Z,101987.75
2023-05-12T16:44:02.204Z,101990.28
2023-05-12T16:46:04.216Z,101986.91
2023-05-12T16:48:06.338Z,101990.53
2023-05-12T16:50:08.477Z,101990.63
2023-05-12T16:52:11.937Z,101987.06
2023-05-12T16:54:13.898Z,101995.25
2023-05-12T16:56:15.372Z,101987.44
2023-05-12T16:58:16.955Z,101996.28
2023-05-12T17:00:18.852Z,101997.94
2023-05-12T17:02:20.488Z,101996.88
2023-05-12T17:04:22.090Z,101989.59
2023-05-12T17:06:23.653Z,101994.00
2023-05-12T17:08:25.221Z,101989.69
2023-05-12T17:10:26.814Z,101997.66
2023-05-12T17:12:28.356Z,101992.38
2023-05-12T17:14:30.353Z,101999.47
2023-05-12T17:16:31.972Z,102002.09
2023-05-12T17:20:54.900Z,101996.44
2023-05-12T17:22:57.017Z,102009.09
2023-05-12T17:24:58.523Z,102010.84
2023-05-12T17:27:00.414Z,102006.41
2023-05-12T17:29:02.451Z,102021.41
2023-05-12T17:31:04.395Z,102010.94
2023-05-12T17:33:07.662Z,102009.97
2023-05-12T17:35:10.017Z,102020.63
2023-05-12T17:37:11.849Z,102023.50
2023-05-12T17:39:15.890Z,102021.78
2023-05-12T17:41:18.264Z,102020.72
2023-05-12T17:43:21.355Z,102025.44
2023-05-12T17:45:23.265Z,102028.28
2023-05-12T17:47:26.014Z,102031.00
2023-05-12T17:49:27.704Z,102026.75
2023-05-12T17:51:29.957Z,102028.47
2023-05-12T17:53:32.364Z,102022.31
2023-05-12T17:55:33.827Z,102038.63
2023-05-12T17:57:35.320Z,102037.84
2023-05-12T17:59:36.895Z,102031.66
2023-05-12T18:01:38.589Z,102040.69
2023-05-12T18:03:40.353Z,102034.44
2023-05-12T18:05:42.197Z,102036.34
2023-05-12T18:07:43.673Z,102038.19
2023-05-12T18:09:45.649Z,102043.00
2023-05-12T18:11:50.058Z,102043.28
2023-05-12T18:13:53.700Z,102049.78
2023-05-12T18:15:55.184Z,102051.00
2023-05-12T18:17:57.914Z,102047.78
2023-05-12T18:19:59.507Z,102047.97
2023-05-12T18:22:01.300Z,102046.41
2023-05-12T18:24:02.892Z,102045.69
2023-05-12T18:26:04.364Z,102047.84
2023-05-12T18:28:07.435Z,102046.53
2023-05-12T18:30:09.520Z,102049.63
2023-05-12T18:32:10.988Z,102048.41
2023-05-12T18:34:12.455Z,102045.41
2023-05-12T18:36:16.079Z,102038.84
2023-05-12T18:38:18.083Z,102044.84
2023-05-12T18:40:19.755Z,102047.00
2023-05-12T18:42:21.268Z,102041.31
2023-05-12T18:44:23.013Z,102049.75
2023-05-12T18:46:24.526Z,102051.88
2023-05-12T18:48:26.028Z,102049.59
2023-05-12T18:50:27.696Z,102050.94
2023-05-12T18:52:29.167Z,102061.81
2023-05-12T18:54:30.690Z,102055.09
2023-05-12T18:56:32.217Z,102059.91
2023-05-12T18:58:33.720Z,102060.38
2023-05-12T19:00:35.634Z,102062.47
2023-05-12T19:02:37.481Z,102069.25
2023-05-12T19:04:39.271Z,102069.38
2023-05-12T19:06:40.868Z,102072.38
2023-05-12T19:08:42.328Z,102070.03
2023-05-12T19:10:43.898Z,102067.63
2023-05-12T19:12:45.412Z,102076.97
2023-05-12T19:14:46.942Z,102075.47
2023-05-12T19:16:48.593Z,102076.53
2023-05-12T19:18:50.523Z,102082.13
2023-05-12T19:20:52.152Z,102082.41
2023-05-12T19:22:53.714Z,102084.28
2023-05-12T19:24:55.809Z,102079.34
2023-05-12T19:26:57.617Z,102088.41
2023-05-12T19:29:00.484Z,102086.88
2023-05-12T19:31:02.076Z,102088.81
2023-05-12T19:33:03.690Z,102089.09
2023-05-12T19:35:06.741Z,102098.25
2023-05-12T19:37:08.277Z,102097.53
2023-05-12T19:39:09.822Z,102095.13
2023-05-12T19:41:11.581Z,102098.03
2023-05-12T19:43:13.093Z,102101.78
2023-05-12T19:45:15.602Z,102101.97
2023-05-12T19:47:17.315Z,102099.72
2023-05-12T19:49:18.804Z,102102.66
2023-05-12T19:51:20.413Z,102109.13
2023-05-12T19:53:21.907Z,102103.84
2023-05-12T19:55:23.607Z,102105.84
2023-05-12T19:57:25.341Z,102113.25
2023-05-12T19:59:26.923Z,102117.91
2023-05-12T20:01:28.694Z,102118.19
2023-05-12T20:03:31.221Z,102119.16
2023-05-12T20:05:36.611Z,102122.78
2023-05-12T20:07:39.011Z,102121.28
2023-05-12T20:09:40.577Z,102119.53
2023-05-12T20:11:42.126Z,102122.34
2023-05-12T20:13:43.671Z,102124.41
2023-05-12T20:15:45.394Z,102126.25
2023-05-12T20:17:46.956Z,102123.72
2023-05-12T20:19:48.515Z,102129.31
2023-05-12T20:21:49.976Z,102130.31
2023-05-12T20:23:51.546Z,102128.81
2023-05-12T20:25:53.339Z,102128.00
2023-05-12T20:27:55.630Z,102129.06
2023-05-12T20:29:57.164Z,102130.84
2023-05-12T20:31:58.904Z,102132.91
2023-05-12T20:34:00.364Z,102141.19
2023-05-12T20:36:01.865Z,102141.38
2023-05-12T20:38:03.312Z,102141.41
2023-05-12T20:40:07.078Z,102138.97
2023-05-12T20:42:11.134Z,102144.41
2023-05-12T20:44:12.652Z,102140.19
2023-05-12T20:46:14.256Z,102144.78
2023-05-12T20:48:15.913Z,102146.75
2023-05-12T20:50:17.571Z,102147.75
2023-05-12T20:52:19.148Z,102147.97
2023-05-12T20:54:20.663Z,102143.66
2023-05-12T20:56:26.456Z,102146.47
2023-05-12T20:58:27.992Z,102147.50
2023-05-12T21:00:29.484Z,102139.75
2023-05-12T21:02:31.083Z,102150.53
2023-05-12T21:04:32.749Z,102144.41
2023-05-12T21:06:35.913Z,102153.38
2023-05-12T21:08:37.751Z,102151.91
2023-05-12T21:10:40.123Z,102153.81
2023-05-12T21:12:41.701Z,102152.22
2023-05-12T21:14:45.178Z,102150.63
2023-05-12T21:16:46.768Z,102154.28
2023-05-12T21:18:48.391Z,102153.63
2023-05-12T21:20:50.039Z,102159.94
2023-05-12T21:22:51.529Z,102157.38
2023-05-12T21:24:53.102Z,102158.28
2023-05-12T21:26:54.611Z,102162.84
2023-05-12T21:28:56.238Z,102163.84
2023-05-12T21:30:57.715Z,102164.88
2023-05-12T21:32:59.350Z,102164.06
2023-05-12T21:35:00.849Z,102170.34
2023-05-12T21:37:02.394Z,102165.16
2023-05-12T21:39:03.996Z,102163.44
2023-05-12T21:41:05.513Z,102168.84
2023-05-12T21:43:07.073Z,102164.50
2023-05-12T21:45:09.167Z,102167.31
2023-05-12T21:47:10.728Z,102166.66
2023-05-12T21:49:12.214Z,102171.16
2023-05-12T21:51:14.138Z,102169.50
2023-05-12T21:53:15.619Z,102174.97
2023-05-12T21:55:17.133Z,102171.53
2023-05-12T21:57:18.610Z,102176.13
2023-05-12T21:59:20.702Z,102178.78
2023-05-12T22:01:22.292Z,102176.22
2023-05-12T22:03:25.335Z,102179.91
2023-05-12T22:05:26.876Z,102180.88
2023-05-12T22:07:29.416Z,102184.50
2023-05-12T22:09:31.369Z,102178.44
2023-05-12T22:11:33.412Z,102186.53
2023-05-12T22:13:34.991Z,102182.19
2023-05-12T22:15:36.590Z,102179.66
2023-05-12T22:17:38.104Z,102184.22
2023-05-12T22:19:39.623Z,102188.75
2023-05-12T22:21:41.179Z,102195.91
2023-05-12T22:23:42.780Z,102183.59
2023-05-12T22:25:44.267Z,102192.50
2023-05-12T22:27:45.798Z,102197.00
2023-05-12T22:29:47.369Z,102201.59
2023-05-12T22:31:49.034Z,102183.97
2023-05-12T22:33:50.961Z,102192.97
2023-05-12T22:35:52.476Z,102194.88
2023-05-12T22:37:54.712Z,102193.16
2023-05-12T22:39:56.180Z,102192.38
2023-05-12T22:41:57.662Z,102197.75
2023-05-12T22:43:59.242Z,102200.53
2023-05-12T22:46:00.838Z,102205.94
2023-05-12T22:48:02.499Z,102199.81
2023-05-12T22:50:04.277Z,102197.28
2023-05-12T22:52:06.120Z,102200.00
2023-05-12T22:54:07.857Z,102205.41
2023-05-12T22:56:09.383Z,102206.38
2023-05-12T22:58:11.653Z,102209.94
2023-05-12T23:00:13.767Z,102205.63
2023-05-12T23:02:15.620Z,102211.94
2023-05-12T23:04:17.231Z,102209.38
2023-05-12T23:06:19.004Z,102213.91
2023-05-12T23:08:20.722Z,102213.97
2023-05-12T23:10:22.322Z,102212.34
2023-05-12T23:12:23.982Z,102206.22
2023-05-12T23:14:25.476Z,102207.22
2023-05-12T23:16:27.199Z,102203.75
2023-05-12T23:18:28.727Z,102206.50